Airfield :
LOGIN :

Register | Disclaimer

   EN    FR    IT 

 










Legend :    VFR   Marginal VFR   IFR   Intensive IFR   Very Intensive IFR
Visi :
Ceiling :
>= 8 km
>= 3000ft
5 to 8 km
1000 to 3000 ft
1500m to 5 km
500 to 1000 ft
800 to 1500m
200 to 500 ft
< 800m
< 200 ft
Symbols :   Thunderstorms  Fog  Heavy snow  Heavy precipitations  Wind > 20 kt
SIGMETs :     Misc.  Thunderstorms  Icing  Turbulence  Mountain Waves  Volcanic Ashes







- Airport Elevation : 2001 ft
- IATA code : MAD


LEMD - Madrid

CURRENT METAR :
  • 201730Z 14006KT 100V170 CAVOK 33/07 Q1017 NOSIG

EXPIRED METARs :
  • 201700Z 17006KT 120V240 CAVOK 33/06 Q1017 NOSIG
  • 201630Z 15007KT 110V210 CAVOK 33/07 Q1017 NOSIG
  • 201600Z 14006KT 090V240 CAVOK 33/07 Q1018 NOSIG
  • 201530Z 10005KT 050V190 CAVOK 33/07 Q1018 NOSIG
  • 201500Z 22004KT 150V290 CAVOK 33/08 Q1018 NOSIG

TAF TAF LEMD
Valid from the 20 at 18:00 until the 22 at 00:00 UTC


201700Z 2018/2124 VRB05KT CAVOK TX35/2115Z TN19/2106Z
PROB30
TEMPO 2115/2119 FEW040TCU
No reported NOTAMs for that airfield.
1 SIGMET reported for the Madrid FIR (LECM) :
 
Embedded thunderstorms
LECM SIGMET 2 VALID 201630/201830 LEVA
LECM MADRID FIR/UIR EMBD TS OBS AT 1614Z W OF LINE N3716 W00416 - N3855 W00415 TOP FL400 MOV NE NC=



MET'MAP, your aeronautical weather chart ! - Copyright ORBIFLY December 2007 - Disclaimer

ORBIFLY MET'MAP TEAM :

Programming & Development : Alexandra Zaïnal
Concept & Development : Baudouin d'Aumeries
Co-Development & Prog : Marc-Olivier Méhu
Technical & hardware support : Manuel Goepfert

Contact : metmap@orbifly.com




SOURCES & CREDITS :

   NOAA